Time;durP1;ratioP1;P1;durP2;ratioP2;P2;SDS_P1;SDS_P2;PMS_P1;PMS_P2;Temp;Humidity;BMP_temperature;BMP_pressure;BME280_temperature;BME280_humidity;BME280_pressure;Samples;Min_cycle;Max_cycle;Signal;HPM_P1;HPM_P2
2023/07/31 00:01:26;;;;;;;7.03;1.30;;;;;;;;;;6156865;23;20063;-43
2023/07/31 00:03:54;;;;;;;7.75;1.42;;;;;;;;;;6153179;23;20021;-43
2023/07/31 00:06:23;;;;;;;7.82;1.75;;;;;;;;;;6151438;23;20029;-45
2023/07/31 00:08:51;;;;;;;7.05;1.50;;;;;;;;;;6158105;23;20013;-45
2023/07/31 00:11:19;;;;;;;5.88;1.52;;;;;;;;;;6146782;23;20021;-45
2023/07/31 00:13:46;;;;;;;9.40;1.50;;;;;;;;;;6150066;23;20024;-44
2023/07/31 00:16:16;;;;;;;10.93;1.45;;;;;;;;;;6157065;23;20025;-43
2023/07/31 00:18:44;;;;;;;6.63;1.30;;;;;;;;;;6159640;23;20021;-43
2023/07/31 00:21:12;;;;;;;5.47;1.42;;;;;;;;;;6144130;23;20016;-43
2023/07/31 00:23:39;;;;;;;6.22;1.50;;;;;;;;;;6159230;23;20021;-44
2023/07/31 00:26:07;;;;;;;5.90;1.67;;;;;;;;;;6134739;23;20024;-43
2023/07/31 00:28:35;;;;;;;9.63;1.55;;;;;;;;;;6161565;23;20067;-44
2023/07/31 00:31:03;;;;;;;6.78;1.83;;;;;;;;;;6144200;23;20021;-43
2023/07/31 00:33:32;;;;;;;6.85;1.50;;;;;;;;;;6156321;23;20439;-43
2023/07/31 00:36:00;;;;;;;6.13;1.55;;;;;;;;;;6148054;23;20374;-43
2023/07/31 00:38:27;;;;;;;7.47;2.03;;;;;;;;;;6158613;23;20020;-43
2023/07/31 00:40:55;;;;;;;6.40;1.88;;;;;;;;;;6146416;23;20035;-45
2023/07/31 00:43:23;;;;;;;7.93;1.75;;;;;;;;;;6160143;23;20563;-46
2023/07/31 00:45:50;;;;;;;6.65;1.83;;;;;;;;;;6146878;23;20020;-43
2023/07/31 00:48:18;;;;;;;5.90;1.40;;;;;;;;;;6156053;23;20104;-43
2023/07/31 00:50:47;;;;;;;8.43;1.50;;;;;;;;;;6145104;23;20023;-43
2023/07/31 00:53:14;;;;;;;6.57;1.88;;;;;;;;;;6159265;23;20020;-42
2023/07/31 00:55:42;;;;;;;6.70;1.75;;;;;;;;;;6153535;23;20108;-44
2023/07/31 00:58:10;;;;;;;7.30;1.38;;;;;;;;;;6163665;23;20017;-43
2023/07/31 01:00:38;;;;;;;8.60;1.70;;;;;;;;;;6154431;23;20016;-42
2023/07/31 01:03:05;;;;;;;7.00;1.83;;;;;;;;;;6153058;23;20024;-43
2023/07/31 01:05:37;;;;;;;6.97;1.63;;;;;;;;;;6156612;23;20017;-43
2023/07/31 01:08:10;;;;;;;6.07;1.77;;;;;;;;;;6142090;23;20025;-45
2023/07/31 01:10:46;;;;;;;8.20;1.80;;;;;;;;;;6144122;23;20149;-44
2023/07/31 01:13:14;;;;;;;7.93;1.88;;;;;;;;;;6164055;23;20021;-45
2023/07/31 01:15:42;;;;;;;10.63;2.13;;;;;;;;;;6157155;23;20039;-42
2023/07/31 01:18:10;;;;;;;7.15;1.90;;;;;;;;;;6158147;23;20049;-44
2023/07/31 01:20:38;;;;;;;6.05;2.08;;;;;;;;;;6142237;23;20775;-44
2023/07/31 01:23:32;;;;;;;6.88;1.30;;;;;;;;;;6159461;23;20032;-43
2023/07/31 01:26:05;;;;;;;7.32;1.20;;;;;;;;;;6141621;23;20028;-44
2023/07/31 01:28:36;;;;;;;6.83;1.83;;;;;;;;;;6162956;23;20581;-43
2023/07/31 01:31:07;;;;;;;7.60;2.10;;;;;;;;;;6150082;23;20354;-43
2023/07/31 01:33:37;;;;;;;12.05;2.13;;;;;;;;;;6163210;23;20071;-43
2023/07/31 01:36:08;;;;;;;8.07;1.85;;;;;;;;;;6137947;23;20450;-44
2023/07/31 01:38:35;;;;;;;9.35;1.95;;;;;;;;;;6162244;23;20053;-46
2023/07/31 01:41:04;;;;;;;9.20;2.30;;;;;;;;;;6144703;23;20027;-45
2023/07/31 01:43:33;;;;;;;9.02;1.95;;;;;;;;;;6155560;23;20013;-43
2023/07/31 01:46:01;;;;;;;8.05;2.03;;;;;;;;;;6155464;23;20044;-43
2023/07/31 01:48:28;;;;;;;8.20;1.90;;;;;;;;;;6163665;23;20017;-43
2023/07/31 01:50:56;;;;;;;9.82;2.10;;;;;;;;;;6156420;23;20026;-43
2023/07/31 01:53:24;;;;;;;11.77;2.27;;;;;;;;;;6166035;23;20436;-44
2023/07/31 01:55:51;;;;;;;9.80;2.00;;;;;;;;;;6149105;23;20017;-45
2023/07/31 01:58:21;;;;;;;8.60;2.53;;;;;;;;;;6163607;23;20017;-43
2023/07/31 02:00:49;;;;;;;6.35;1.50;;;;;;;;;;6165922;23;20021;-43
2023/07/31 02:03:17;;;;;;;9.63;2.33;;;;;;;;;;6140351;23;20021;-43
2023/07/31 02:05:45;;;;;;;10.87;2.17;;;;;;;;;;6168294;23;20013;-43
2023/07/31 02:08:13;;;;;;;10.45;1.98;;;;;;;;;;6160699;23;20535;-43
2023/07/31 02:10:41;;;;;;;10.35;2.00;;;;;;;;;;6166554;23;20477;-44
2023/07/31 02:13:09;;;;;;;11.10;1.95;;;;;;;;;;6158931;23;20097;-44
2023/07/31 02:15:39;;;;;;;10.32;2.15;;;;;;;;;;6162084;23;20025;-45
2023/07/31 02:18:07;;;;;;;6.93;1.93;;;;;;;;;;6169664;23;20016;-43
2023/07/31 02:20:35;;;;;;;9.02;1.98;;;;;;;;;;6161056;23;20021;-43
2023/07/31 02:23:02;;;;;;;8.93;1.73;;;;;;;;;;6148186;23;20017;-44
2023/07/31 02:25:30;;;;;;;11.85;1.90;;;;;;;;;;6134753;23;20124;-44
2023/07/31 02:27:58;;;;;;;11.63;2.45;;;;;;;;;;6162927;23;20107;-43
2023/07/31 02:30:26;;;;;;;10.07;2.30;;;;;;;;;;6160637;23;20017;-43
2023/07/31 02:32:55;;;;;;;7.75;2.10;;;;;;;;;;6161241;23;20100;-44
2023/07/31 02:35:23;;;;;;;10.38;2.95;;;;;;;;;;6157502;23;20044;-47
2023/07/31 02:37:55;;;;;;;6.65;2.13;;;;;;;;;;6156742;23;20017;-44
2023/07/31 02:40:23;;;;;;;6.97;1.95;;;;;;;;;;6166667;23;20464;-43
2023/07/31 02:42:51;;;;;;;8.47;1.80;;;;;;;;;;6138448;23;20024;-43
2023/07/31 02:45:18;;;;;;;7.05;1.73;;;;;;;;;;6157385;23;20165;-45
2023/07/31 02:47:47;;;;;;;9.63;2.22;;;;;;;;;;6165523;23;20024;-44
2023/07/31 02:50:16;;;;;;;8.07;1.50;;;;;;;;;;6164088;23;20455;-43
2023/07/31 02:52:44;;;;;;;8.98;1.77;;;;;;;;;;6159251;23;20435;-43
2023/07/31 02:55:12;;;;;;;7.27;1.30;;;;;;;;;;6166209;23;20013;-45
2023/07/31 02:57:41;;;;;;;7.40;1.63;;;;;;;;;;6153416;23;20023;-44
2023/07/31 03:00:09;;;;;;;5.88;1.30;;;;;;;;;;6159342;23;20339;-43
2023/07/31 03:02:36;;;;;;;6.43;1.67;;;;;;;;;;6164636;23;20032;-44
2023/07/31 03:05:05;;;;;;;6.15;1.48;;;;;;;;;;6154117;23;20067;-46
2023/07/31 03:07:35;;;;;;;10.47;1.50;;;;;;;;;;6162309;23;20013;-44
2023/07/31 03:10:03;;;;;;;5.93;1.45;;;;;;;;;;6162049;23;20743;-43
2023/07/31 03:12:31;;;;;;;8.75;1.77;;;;;;;;;;6157744;23;20016;-45
2023/07/31 03:14:59;;;;;;;7.15;1.73;;;;;;;;;;6158485;23;20039;-45
2023/07/31 03:17:26;;;;;;;7.72;1.70;;;;;;;;;;6156741;23;20017;-43
2023/07/31 03:19:54;;;;;;;6.87;2.00;;;;;;;;;;6162477;23;20095;-43
2023/07/31 03:22:22;;;;;;;6.47;1.40;;;;;;;;;;6152645;23;20028;-45
2023/07/31 03:24:54;;;;;;;6.85;1.40;;;;;;;;;;6160160;23;20013;-43
2023/07/31 03:27:24;;;;;;;5.38;1.00;;;;;;;;;;6164549;23;20024;-43
2023/07/31 03:29:51;;;;;;;4.53;0.90;;;;;;;;;;6151727;23;20017;-43
2023/07/31 03:32:19;;;;;;;4.50;0.80;;;;;;;;;;6158021;23;20048;-43
2023/07/31 03:34:47;;;;;;;2.70;0.60;;;;;;;;;;6156932;23;20044;-43
2023/07/31 03:37:14;;;;;;;3.28;0.70;;;;;;;;;;6161681;23;20021;-45
2023/07/31 03:39:42;;;;;;;4.53;0.68;;;;;;;;;;6156356;23;20228;-45
2023/07/31 03:42:11;;;;;;;4.30;0.40;;;;;;;;;;6162044;23;20024;-45
2023/07/31 03:44:39;;;;;;;4.00;0.77;;;;;;;;;;6155907;23;20473;-47
2023/07/31 03:47:07;;;;;;;5.68;0.70;;;;;;;;;;6158057;23;20040;-44
2023/07/31 03:49:34;;;;;;;5.75;1.20;;;;;;;;;;6150654;23;20045;-43
2023/07/31 03:52:02;;;;;;;4.95;0.80;;;;;;;;;;6158295;23;20017;-43
2023/07/31 03:54:29;;;;;;;5.03;0.90;;;;;;;;;;6153390;23;20017;-44
2023/07/31 03:56:57;;;;;;;7.13;1.37;;;;;;;;;;6163557;23;20096;-43
2023/07/31 03:59:26;;;;;;;10.85;1.73;;;;;;;;;;6148798;23;20020;-44
2023/07/31 04:01:54;;;;;;;7.32;1.58;;;;;;;;;;6166778;23;20036;-43
2023/07/31 04:04:22;;;;;;;8.45;2.47;;;;;;;;;;6149999;23;20027;-43
2023/07/31 04:06:50;;;;;;;7.75;1.42;;;;;;;;;;6162948;23;20021;-43
2023/07/31 04:09:18;;;;;;;8.43;1.80;;;;;;;;;;6164756;23;20013;-43
2023/07/31 04:11:46;;;;;;;10.30;2.05;;;;;;;;;;6147917;23;20013;-42
2023/07/31 04:14:13;;;;;;;10.65;1.73;;;;;;;;;;6151993;23;20027;-43
2023/07/31 04:16:46;;;;;;;11.27;2.28;;;;;;;;;;6162268;23;20093;-44
2023/07/31 04:19:16;;;;;;;12.05;1.98;;;;;;;;;;6160153;23;20210;-43
2023/07/31 04:21:44;;;;;;;8.10;1.33;;;;;;;;;;6144920;23;20071;-44
2023/07/31 04:24:12;;;;;;;8.52;1.50;;;;;;;;;;6160224;23;20436;-43
2023/07/31 04:26:40;;;;;;;12.02;1.70;;;;;;;;;;6154772;23;20091;-43
2023/07/31 04:29:08;;;;;;;6.93;1.88;;;;;;;;;;6162941;23;20017;-43
2023/07/31 04:31:36;;;;;;;10.20;1.83;;;;;;;;;;6157111;23;20027;-43
2023/07/31 04:34:08;;;;;;;7.63;1.73;;;;;;;;;;6161547;23;20025;-45
2023/07/31 04:36:36;;;;;;;9.00;2.03;;;;;;;;;;6153132;23;20025;-47
2023/07/31 04:39:04;;;;;;;6.53;1.65;;;;;;;;;;6162517;23;20071;-45
2023/07/31 04:41:32;;;;;;;8.73;1.80;;;;;;;;;;6154945;23;20118;-43
2023/07/31 04:43:59;;;;;;;8.90;2.35;;;;;;;;;;6162588;23;20048;-43
2023/07/31 04:46:27;;;;;;;7.63;1.63;;;;;;;;;;6159877;23;20020;-43
2023/07/31 04:48:55;;;;;;;9.88;2.42;;;;;;;;;;6159845;23;20056;-44
2023/07/31 04:51:25;;;;;;;9.60;2.08;;;;;;;;;;6156102;23;20036;-46
2023/07/31 04:53:52;;;;;;;11.10;2.10;;;;;;;;;;6159712;23;20056;-45
2023/07/31 04:56:23;;;;;;;8.15;1.55;;;;;;;;;;6158705;23;20092;-45
2023/07/31 04:58:51;;;;;;;6.83;1.70;;;;;;;;;;6147761;23;20017;-46
2023/07/31 05:01:18;;;;;;;9.55;2.25;;;;;;;;;;6157525;23;20017;-43
2023/07/31 05:03:46;;;;;;;8.45;2.40;;;;;;;;;;6151691;23;20044;-44
2023/07/31 05:06:15;;;;;;;8.32;2.05;;;;;;;;;;6155072;23;20060;-45
2023/07/31 05:08:44;;;;;;;11.70;2.65;;;;;;;;;;6154587;23;20024;-43
2023/07/31 05:11:12;;;;;;;7.03;2.07;;;;;;;;;;6161363;23;20024;-43
2023/07/31 05:13:42;;;;;;;8.07;2.00;;;;;;;;;;6137635;23;20021;-44
2023/07/31 05:16:10;;;;;;;10.35;2.78;;;;;;;;;;6163731;23;20017;-43
2023/07/31 05:18:38;;;;;;;11.20;3.05;;;;;;;;;;6154398;23;20390;-43
2023/07/31 05:21:05;;;;;;;7.38;2.00;;;;;;;;;;6154916;23;20017;-43
2023/07/31 05:23:33;;;;;;;10.33;2.17;;;;;;;;;;6150317;23;20868;-43
2023/07/31 05:26:05;;;;;;;9.73;2.80;;;;;;;;;;6153914;23;20021;-43
2023/07/31 05:28:32;;;;;;;12.68;2.92;;;;;;;;;;6150709;23;20482;-45
2023/07/31 05:31:00;;;;;;;7.80;2.08;;;;;;;;;;6154021;23;20234;-43
2023/07/31 05:33:28;;;;;;;9.75;2.13;;;;;;;;;;6146438;23;20415;-43
2023/07/31 05:35:56;;;;;;;10.60;2.87;;;;;;;;;;6157528;23;20021;-44
2023/07/31 05:38:24;;;;;;;8.95;2.30;;;;;;;;;;6143783;23;20017;-44
2023/07/31 05:40:51;;;;;;;6.30;1.58;;;;;;;;;;6154108;23;20021;-43
2023/07/31 05:43:20;;;;;;;7.22;2.45;;;;;;;;;;6150827;23;20268;-43
2023/07/31 05:45:48;;;;;;;9.77;2.33;;;;;;;;;;6157843;23;20017;-44
2023/07/31 05:48:16;;;;;;;7.77;2.10;;;;;;;;;;6151687;23;20099;-43
2023/07/31 05:50:46;;;;;;;11.95;2.53;;;;;;;;;;6159630;23;20032;-44
2023/07/31 05:53:14;;;;;;;8.95;2.55;;;;;;;;;;6159992;23;20013;-43
2023/07/31 05:55:42;;;;;;;11.35;2.35;;;;;;;;;;6155140;23;20313;-45
2023/07/31 05:58:09;;;;;;;9.23;2.50;;;;;;;;;;6161806;23;20013;-43
2023/07/31 06:00:38;;;;;;;8.87;2.20;;;;;;;;;;6145024;23;20044;-43
2023/07/31 06:03:06;;;;;;;9.27;2.40;;;;;;;;;;6158893;23;20017;-45
2023/07/31 06:05:34;;;;;;;9.75;2.83;;;;;;;;;;6151891;23;20905;-44
2023/07/31 06:08:02;;;;;;;10.07;2.83;;;;;;;;;;6160724;23;20017;-42
2023/07/31 06:10:30;;;;;;;9.82;2.60;;;;;;;;;;6146352;23;20020;-43
2023/07/31 06:12:58;;;;;;;10.17;2.63;;;;;;;;;;6157839;23;20025;-43
2023/07/31 06:15:26;;;;;;;11.00;2.65;;;;;;;;;;6143725;23;20013;-43
2023/07/31 06:17:55;;;;;;;9.25;2.80;;;;;;;;;;6157326;23;20017;-43
2023/07/31 06:20:23;;;;;;;10.52;2.80;;;;;;;;;;6147876;23;20205;-43
2023/07/31 06:22:51;;;;;;;7.70;2.40;;;;;;;;;;6157191;23;20710;-43
2023/07/31 06:25:18;;;;;;;9.97;2.70;;;;;;;;;;6134266;23;20448;-43
2023/07/31 06:27:46;;;;;;;8.70;3.08;;;;;;;;;;6160333;23;20025;-44
2023/07/31 06:30:14;;;;;;;13.60;3.78;;;;;;;;;;6144624;23;20793;-44
2023/07/31 06:32:41;;;;;;;9.93;3.22;;;;;;;;;;6152682;23;20036;-44
2023/07/31 06:35:10;;;;;;;8.70;2.88;;;;;;;;;;6140424;23;20083;-44
2023/07/31 06:37:40;;;;;;;9.93;3.07;;;;;;;;;;6160191;23;20475;-45
2023/07/31 06:40:08;;;;;;;13.00;4.05;;;;;;;;;;6148044;23;20016;-43
2023/07/31 06:42:36;;;;;;;7.82;3.40;;;;;;;;;;6161875;23;20043;-49
2023/07/31 06:45:04;;;;;;;11.35;3.17;;;;;;;;;;6144395;23;20353;-44
2023/07/31 06:47:32;;;;;;;11.15;3.03;;;;;;;;;;6161375;23;20017;-43
2023/07/31 06:50:00;;;;;;;8.43;2.37;;;;;;;;;;6151754;23;20125;-43
2023/07/31 06:52:29;;;;;;;10.07;3.08;;;;;;;;;;6153359;23;20108;-45
2023/07/31 06:55:04;;;;;;;8.57;2.95;;;;;;;;;;6154772;23;20021;-43
2023/07/31 06:57:32;;;;;;;9.13;2.60;;;;;;;;;;6154414;23;20020;-45
2023/07/31 07:00:00;;;;;;;7.13;2.60;;;;;;;;;;6150773;23;20495;-43
2023/07/31 07:02:28;;;;;;;11.80;2.70;;;;;;;;;;6147756;23;20040;-45
2023/07/31 07:04:56;;;;;;;10.82;2.53;;;;;;;;;;6147805;23;20348;-43
2023/07/31 07:07:24;;;;;;;9.32;2.63;;;;;;;;;;6153503;23;20017;-42
2023/07/31 07:09:53;;;;;;;9.85;3.08;;;;;;;;;;6149684;23;20032;-43
2023/07/31 07:12:38;;;;;;;7.32;2.30;;;;;;;;;;6153082;23;20024;-43
2023/07/31 07:15:08;;;;;;;9.50;2.60;;;;;;;;;;6159500;23;20017;-44
2023/07/31 07:17:38;;;;;;;8.30;2.10;;;;;;;;;;6154598;23;20013;-42
2023/07/31 07:20:06;;;;;;;9.13;2.63;;;;;;;;;;6146520;23;20866;-44
2023/07/31 07:22:34;;;;;;;9.55;2.60;;;;;;;;;;6154593;23;20017;-46
2023/07/31 07:25:05;;;;;;;12.13;2.42;;;;;;;;;;6151475;23;20021;-43
2023/07/31 07:27:33;;;;;;;9.97;2.27;;;;;;;;;;6150286;23;20085;-44
2023/07/31 07:30:00;;;;;;;9.65;2.17;;;;;;;;;;6155002;23;20017;-43
2023/07/31 07:32:29;;;;;;;8.57;2.20;;;;;;;;;;6155080;23;20329;-43
2023/07/31 07:34:56;;;;;;;9.02;1.73;;;;;;;;;;6151958;23;20028;-43
2023/07/31 07:37:25;;;;;;;9.23;2.30;;;;;;;;;;6155549;23;20017;-43
2023/07/31 07:39:53;;;;;;;8.13;2.07;;;;;;;;;;6143479;23;20020;-43
2023/07/31 07:42:22;;;;;;;10.10;2.70;;;;;;;;;;6162427;23;20329;-45
2023/07/31 07:44:50;;;;;;;10.23;2.55;;;;;;;;;;6147288;23;20232;-43
2023/07/31 07:47:18;;;;;;;9.73;2.15;;;;;;;;;;6150435;23;20017;-43
2023/07/31 07:49:46;;;;;;;9.20;2.22;;;;;;;;;;6149750;23;20021;-45
2023/07/31 07:52:20;;;;;;;9.20;1.97;;;;;;;;;;6154086;23;20021;-43
2023/07/31 07:54:47;;;;;;;8.32;1.88;;;;;;;;;;6138906;23;20023;-44
2023/07/31 07:57:15;;;;;;;11.32;2.08;;;;;;;;;;6157074;23;20092;-46
2023/07/31 07:59:45;;;;;;;7.63;1.77;;;;;;;;;;6144874;23;20021;-43
2023/07/31 08:02:15;;;;;;;7.95;1.95;;;;;;;;;;6151254;23;20263;-43
2023/07/31 08:04:42;;;;;;;7.17;1.80;;;;;;;;;;6146092;23;20100;-43
2023/07/31 08:07:11;;;;;;;6.95;1.75;;;;;;;;;;6144457;23;20048;-43
2023/07/31 08:09:39;;;;;;;7.45;1.85;;;;;;;;;;6152232;23;20037;-43
2023/07/31 08:12:07;;;;;;;8.63;1.73;;;;;;;;;;6151713;23;20462;-43
2023/07/31 08:14:35;;;;;;;8.07;1.70;;;;;;;;;;6132385;23;20025;-43
2023/07/31 08:17:04;;;;;;;6.60;1.67;;;;;;;;;;6123383;23;20024;-43
2023/07/31 08:19:32;;;;;;;9.18;2.40;;;;;;;;;;6135547;23;20103;-43
2023/07/31 08:22:00;;;;;;;10.13;2.33;;;;;;;;;;6140030;23;20041;-44
2023/07/31 08:24:30;;;;;;;8.40;2.30;;;;;;;;;;6130695;23;20021;-44
2023/07/31 08:26:57;;;;;;;7.72;1.70;;;;;;;;;;6136474;23;20017;-43
2023/07/31 08:29:25;;;;;;;6.17;1.60;;;;;;;;;;6140943;23;20021;-43
2023/07/31 08:31:53;;;;;;;6.22;1.25;;;;;;;;;;6133783;23;20021;-43
2023/07/31 08:34:22;;;;;;;8.90;1.83;;;;;;;;;;6137088;23;20455;-43
2023/07/31 08:36:50;;;;;;;7.95;1.90;;;;;;;;;;6137305;23;20017;-43
2023/07/31 08:39:18;;;;;;;6.75;1.60;;;;;;;;;;6143621;23;20515;-45
2023/07/31 08:41:45;;;;;;;7.77;1.47;;;;;;;;;;6132134;23;20016;-46
2023/07/31 08:44:14;;;;;;;5.88;1.60;;;;;;;;;;6135035;23;20096;-45
2023/07/31 08:46:42;;;;;;;8.05;2.10;;;;;;;;;;6136346;23;20047;-44
2023/07/31 08:49:11;;;;;;;5.93;1.30;;;;;;;;;;6142586;23;20096;-45
2023/07/31 08:51:41;;;;;;;7.72;1.60;;;;;;;;;;6141871;23;20017;-44
2023/07/31 08:54:09;;;;;;;6.37;1.77;;;;;;;;;;6131733;23;20013;-43
2023/07/31 08:56:37;;;;;;;10.63;1.92;;;;;;;;;;6138825;23;20451;-44
2023/07/31 08:59:05;;;;;;;6.53;1.65;;;;;;;;;;6136281;23;20193;-44
2023/07/31 09:01:36;;;;;;;6.38;1.73;;;;;;;;;;6139980;23;20096;-43
2023/07/31 09:04:05;;;;;;;17.92;1.77;;;;;;;;;;6133916;23;20017;-44
2023/07/31 09:06:33;;;;;;;6.30;1.60;;;;;;;;;;6147708;23;20021;-43
2023/07/31 09:09:02;;;;;;;6.55;1.95;;;;;;;;;;6127248;23;20048;-45
2023/07/31 09:11:30;;;;;;;6.68;1.50;;;;;;;;;;6146809;23;20053;-44
2023/07/31 09:13:58;;;;;;;8.35;1.95;;;;;;;;;;6133869;23;20021;-45
2023/07/31 09:16:31;;;;;;;8.18;1.63;;;;;;;;;;6141734;23;20017;-45
2023/07/31 09:19:01;;;;;;;6.97;1.80;;;;;;;;;;6132872;23;20017;-44
2023/07/31 09:21:29;;;;;;;5.30;1.40;;;;;;;;;;6147162;23;20021;-43
2023/07/31 09:23:58;;;;;;;6.20;1.50;;;;;;;;;;6132556;23;20025;-44
2023/07/31 09:26:32;;;;;;;7.53;1.92;;;;;;;;;;6137921;23;20025;-46
2023/07/31 09:29:00;;;;;;;6.10;1.58;;;;;;;;;;6144402;23;20109;-44
2023/07/31 09:31:34;;;;;;;7.03;1.70;;;;;;;;;;6136060;23;20021;-49
2023/07/31 09:34:02;;;;;;;6.63;1.77;;;;;;;;;;6141202;23;20060;-44
2023/07/31 09:36:31;;;;;;;8.82;1.65;;;;;;;;;;6131254;23;20375;-45
2023/07/31 09:39:02;;;;;;;5.90;1.50;;;;;;;;;;6139090;23;20021;-45
2023/07/31 09:41:30;;;;;;;7.10;1.90;;;;;;;;;;6138690;23;20344;-45
2023/07/31 09:43:59;;;;;;;9.20;1.40;;;;;;;;;;6140347;23;20021;-43
2023/07/31 09:46:28;;;;;;;6.15;1.40;;;;;;;;;;6133231;23;20083;-43
2023/07/31 09:49:06;;;;;;;8.95;1.90;;;;;;;;;;6144690;23;20025;-44
2023/07/31 09:51:38;;;;;;;6.30;2.00;;;;;;;;;;6129723;23;20020;-44
2023/07/31 09:54:12;;;;;;;6.75;1.80;;;;;;;;;;6139857;23;20021;-44
2023/07/31 09:56:42;;;;;;;9.23;2.07;;;;;;;;;;6132421;23;20451;-43
2023/07/31 09:59:13;;;;;;;7.07;2.05;;;;;;;;;;6134430;23;20601;-43
2023/07/31 10:01:42;;;;;;;9.70;2.30;;;;;;;;;;6131311;23;20095;-45
2023/07/31 10:04:11;;;;;;;8.90;2.00;;;;;;;;;;6133273;23;20021;-43
2023/07/31 10:06:39;;;;;;;9.73;2.15;;;;;;;;;;6137006;23;20028;-44
2023/07/31 10:09:08;;;;;;;8.77;1.80;;;;;;;;;;6138602;23;20106;-43
2023/07/31 10:11:38;;;;;;;8.13;2.47;;;;;;;;;;6137231;23;20021;-45
2023/07/31 10:14:06;;;;;;;9.52;2.45;;;;;;;;;;6131137;23;20021;-45
2023/07/31 10:16:40;;;;;;;8.93;2.20;;;;;;;;;;6138654;23;20088;-44
2023/07/31 10:19:11;;;;;;;15.07;2.88;;;;;;;;;;6150617;23;20394;-44
2023/07/31 10:21:41;;;;;;;12.47;2.93;;;;;;;;;;6154481;23;20435;-47
2023/07/31 10:24:09;;;;;;;12.15;2.30;;;;;;;;;;6149557;23;20017;-43
2023/07/31 10:26:38;;;;;;;9.75;2.10;;;;;;;;;;6143223;23;20025;-43
2023/07/31 10:29:07;;;;;;;13.80;2.95;;;;;;;;;;6160315;23;20049;-47
2023/07/31 10:31:35;;;;;;;11.63;3.15;;;;;;;;;;6149908;23;20019;-45
2023/07/31 10:34:05;;;;;;;12.73;3.47;;;;;;;;;;6150618;23;20386;-45
2023/07/31 10:36:34;;;;;;;16.00;3.70;;;;;;;;;;6152293;23;20021;-42
2023/07/31 10:39:04;;;;;;;17.10;3.72;;;;;;;;;;6152700;23;20111;-44
2023/07/31 10:41:32;;;;;;;15.95;3.00;;;;;;;;;;6142506;23;20021;-43
2023/07/31 10:44:00;;;;;;;14.45;3.70;;;;;;;;;;6155984;23;20044;-44
2023/07/31 10:46:29;;;;;;;14.93;3.53;;;;;;;;;;6154074;23;20357;-44
2023/07/31 10:49:01;;;;;;;22.75;4.07;;;;;;;;;;6154786;23;20025;-43
2023/07/31 10:51:36;;;;;;;13.65;3.25;;;;;;;;;;6155626;23;20021;-44
2023/07/31 10:54:14;;;;;;;12.18;3.22;;;;;;;;;;6154216;23;20473;-44
2023/07/31 10:56:45;;;;;;;13.68;4.32;;;;;;;;;;6152341;23;20021;-43
2023/07/31 10:59:13;;;;;;;11.33;3.30;;;;;;;;;;6141098;23;20632;-44
2023/07/31 11:01:51;;;;;;;14.68;3.90;;;;;;;;;;6157041;23;20017;-43
2023/07/31 11:04:23;;;;;;;10.68;2.63;;;;;;;;;;6146498;23;20330;-46
2023/07/31 11:06:58;;;;;;;15.00;3.45;;;;;;;;;;6159942;23;20467;-45
2023/07/31 11:09:29;;;;;;;12.90;3.80;;;;;;;;;;6147415;23;20025;-46
2023/07/31 11:12:17;;;;;;;16.87;3.77;;;;;;;;;;6153409;23;20361;-44
2023/07/31 11:14:45;;;;;;;15.20;3.75;;;;;;;;;;6140522;23;20017;-43
2023/07/31 11:17:12;;;;;;;13.25;3.65;;;;;;;;;;6151602;23;20040;-44
2023/07/31 11:19:40;;;;;;;17.35;3.95;;;;;;;;;;6152069;23;20075;-43
2023/07/31 11:22:12;;;;;;;24.33;5.07;;;;;;;;;;6146168;23;20064;-43
2023/07/31 11:24:39;;;;;;;16.77;3.67;;;;;;;;;;6154692;23;20013;-43
2023/07/31 11:27:08;;;;;;;13.55;4.22;;;;;;;;;;6142565;23;20029;-42
2023/07/31 11:29:39;;;;;;;22.10;3.88;;;;;;;;;;6159917;23;20023;-46
2023/07/31 11:32:16;;;;;;;16.08;4.13;;;;;;;;;;6152657;23;20488;-43
2023/07/31 11:34:53;;;;;;;14.18;4.03;;;;;;;;;;6153753;23;20017;-44
2023/07/31 11:37:25;;;;;;;19.17;3.30;;;;;;;;;;6156209;23;20622;-46
2023/07/31 11:40:01;;;;;;;15.18;3.38;;;;;;;;;;6141559;23;20016;-47
2023/07/31 11:42:29;;;;;;;14.05;3.97;;;;;;;;;;6155620;23;20455;-43
2023/07/31 11:44:57;;;;;;;15.40;3.75;;;;;;;;;;6148729;23;20013;-43
2023/07/31 11:47:26;;;;;;;18.15;4.38;;;;;;;;;;6156243;23;20027;-43
2023/07/31 11:49:54;;;;;;;12.30;3.83;;;;;;;;;;6153783;23;20021;-43
2023/07/31 11:52:23;;;;;;;19.23;4.10;;;;;;;;;;6145160;23;20021;-44
2023/07/31 11:54:57;;;;;;;13.07;3.67;;;;;;;;;;6152737;23;20022;-43
2023/07/31 11:57:25;;;;;;;17.58;3.65;;;;;;;;;;6148494;23;20017;-43
2023/07/31 11:59:53;;;;;;;14.13;3.58;;;;;;;;;;6150136;23;20712;-43
2023/07/31 12:02:21;;;;;;;15.70;4.07;;;;;;;;;;6145995;23;20019;-44
2023/07/31 12:04:49;;;;;;;15.23;3.85;;;;;;;;;;6159557;23;20024;-43
2023/07/31 12:07:16;;;;;;;17.50;3.92;;;;;;;;;;6137201;23;20470;-44
2023/07/31 12:09:51;;;;;;;12.90;3.85;;;;;;;;;;6150394;23;20379;-43
2023/07/31 12:12:22;;;;;;;15.13;3.97;;;;;;;;;;6141120;23;20100;-46
2023/07/31 12:14:51;;;;;;;14.87;3.80;;;;;;;;;;6154713;23;20017;-43
2023/07/31 12:17:20;;;;;;;16.90;4.35;;;;;;;;;;6144562;23;20024;-44
2023/07/31 12:19:49;;;;;;;15.18;3.47;;;;;;;;;;6155231;23;20021;-43
2023/07/31 12:22:17;;;;;;;13.48;4.65;;;;;;;;;;6144373;23;20024;-46
2023/07/31 12:24:45;;;;;;;13.43;3.67;;;;;;;;;;6153132;23;20013;-46
2023/07/31 12:27:13;;;;;;;12.73;3.27;;;;;;;;;;6149856;23;20107;-43
2023/07/31 12:29:46;;;;;;;15.75;4.40;;;;;;;;;;6154565;23;20445;-44
2023/07/31 12:32:21;;;;;;;14.82;3.92;;;;;;;;;;6148369;23;20102;-43
2023/07/31 12:34:48;;;;;;;16.65;4.25;;;;;;;;;;6152502;23;20017;-46
2023/07/31 12:37:16;;;;;;;18.10;3.78;;;;;;;;;;6146531;23;20021;-45
2023/07/31 12:39:46;;;;;;;19.60;4.13;;;;;;;;;;6151951;23;20436;-43
2023/07/31 12:42:14;;;;;;;15.48;3.70;;;;;;;;;;6159736;23;20022;-44
2023/07/31 12:44:41;;;;;;;15.77;4.28;;;;;;;;;;6151181;23;20023;-44
2023/07/31 12:47:11;;;;;;;11.80;3.45;;;;;;;;;;6155213;23;20078;-43
2023/07/31 12:49:39;;;;;;;17.52;4.40;;;;;;;;;;6155603;23;20079;-43
2023/07/31 12:52:07;;;;;;;20.47;4.13;;;;;;;;;;6161022;23;20013;-45
2023/07/31 12:54:35;;;;;;;12.00;3.53;;;;;;;;;;6141402;23;20017;-44
2023/07/31 12:57:03;;;;;;;18.90;5.32;;;;;;;;;;6156547;23;20017;-43
2023/07/31 12:59:31;;;;;;;15.10;4.10;;;;;;;;;;6153332;23;20396;-44
2023/07/31 13:02:00;;;;;;;16.08;4.43;;;;;;;;;;6153193;23;20021;-43
2023/07/31 13:04:29;;;;;;;15.90;4.17;;;;;;;;;;6155771;23;20096;-43
2023/07/31 13:06:57;;;;;;;16.73;4.07;;;;;;;;;;6151443;23;20021;-42
2023/07/31 13:09:25;;;;;;;16.13;4.55;;;;;;;;;;6159154;23;20017;-43
2023/07/31 13:11:52;;;;;;;17.70;4.70;;;;;;;;;;6155015;23;20028;-43
2023/07/31 13:14:21;;;;;;;15.70;4.60;;;;;;;;;;6148293;23;20021;-43
2023/07/31 13:16:48;;;;;;;11.87;3.80;;;;;;;;;;6156705;23;20452;-43
2023/07/31 13:19:16;;;;;;;16.30;4.65;;;;;;;;;;6155204;23;20025;-44
2023/07/31 13:21:45;;;;;;;14.25;4.15;;;;;;;;;;6157305;23;20026;-44
2023/07/31 13:24:13;;;;;;;15.77;4.20;;;;;;;;;;6156730;23;20023;-43
2023/07/31 13:26:41;;;;;;;19.85;5.35;;;;;;;;;;6160231;23;20014;-42
2023/07/31 13:29:09;;;;;;;17.00;4.53;;;;;;;;;;6155896;23;20044;-44
2023/07/31 13:31:36;;;;;;;13.32;4.43;;;;;;;;;;6154246;23;20398;-46
2023/07/31 13:34:04;;;;;;;14.60;3.75;;;;;;;;;;6151533;23;20779;-43
2023/07/31 13:36:34;;;;;;;21.88;4.68;;;;;;;;;;6155204;23;20024;-43
2023/07/31 13:39:03;;;;;;;15.77;4.72;;;;;;;;;;6146923;23;20017;-43
2023/07/31 13:41:31;;;;;;;18.80;4.20;;;;;;;;;;6149141;23;20412;-43
2023/07/31 13:43:58;;;;;;;17.48;4.13;;;;;;;;;;6145852;23;20027;-42
2023/07/31 13:46:26;;;;;;;14.68;3.97;;;;;;;;;;6152555;23;20471;-44
2023/07/31 13:48:55;;;;;;;17.23;4.68;;;;;;;;;;6151945;23;20031;-43
2023/07/31 13:51:23;;;;;;;22.00;5.43;;;;;;;;;;6153477;23;20067;-42
2023/07/31 13:53:51;;;;;;;16.67;4.77;;;;;;;;;;6152100;23;20017;-43
2023/07/31 13:56:20;;;;;;;22.85;5.25;;;;;;;;;;6153019;23;20097;-43
2023/07/31 13:58:48;;;;;;;19.92;5.50;;;;;;;;;;6153793;23;20027;-43
2023/07/31 14:01:16;;;;;;;13.10;3.80;;;;;;;;;;6152137;23;20112;-43
2023/07/31 14:03:44;;;;;;;14.45;4.18;;;;;;;;;;6141531;23;20022;-42
2023/07/31 14:06:13;;;;;;;13.63;4.03;;;;;;;;;;6155435;23;20028;-42
2023/07/31 14:08:41;;;;;;;12.00;3.35;;;;;;;;;;6153775;23;20021;-43
2023/07/31 14:11:10;;;;;;;13.05;4.07;;;;;;;;;;6159663;23;20210;-45
2023/07/31 14:13:39;;;;;;;12.18;4.00;;;;;;;;;;6154882;23;20036;-44
2023/07/31 14:16:06;;;;;;;13.02;3.38;;;;;;;;;;6153733;23;20021;-46
2023/07/31 14:18:35;;;;;;;14.23;4.53;;;;;;;;;;6146861;23;20024;-45
2023/07/31 14:21:04;;;;;;;13.60;4.45;;;;;;;;;;6149558;23;20024;-43
2023/07/31 14:23:32;;;;;;;14.35;4.10;;;;;;;;;;6163339;23;20025;-43
2023/07/31 14:25:59;;;;;;;14.70;3.83;;;;;;;;;;6145263;23;20013;-43
2023/07/31 14:28:27;;;;;;;15.13;4.32;;;;;;;;;;6156615;23;20067;-43
2023/07/31 14:30:56;;;;;;;14.03;3.60;;;;;;;;;;6150664;23;20021;-45
2023/07/31 14:33:24;;;;;;;10.63;4.10;;;;;;;;;;6152853;23;20470;-43
2023/07/31 14:35:51;;;;;;;13.77;3.85;;;;;;;;;;6145906;23;20284;-42
2023/07/31 14:38:19;;;;;;;12.80;3.90;;;;;;;;;;6152878;23;20039;-43
2023/07/31 14:40:47;;;;;;;11.40;3.92;;;;;;;;;;6153795;23;20021;-44
2023/07/31 14:43:15;;;;;;;15.17;3.40;;;;;;;;;;6156240;23;20021;-45
2023/07/31 14:45:46;;;;;;;12.80;3.15;;;;;;;;;;6156114;23;20091;-46
2023/07/31 14:48:17;;;;;;;11.13;3.75;;;;;;;;;;6152162;23;20027;-43